sensor_id;sensor_type;location;lat;lon;timestamp;P1;durP1;ratioP1;P2;durP2;ratioP2
69246;SDS011;56358;56.328;43.992;2023-11-19T00:01:41;12.20;;;4.43;;
69246;SDS011;56358;56.328;43.992;2023-11-19T00:03:42;11.20;;;5.40;;
69246;SDS011;56358;56.328;43.992;2023-11-19T00:05:44;10.73;;;3.85;;
69246;SDS011;56358;56.328;43.992;2023-11-19T00:07:45;12.52;;;5.18;;
69246;SDS011;56358;56.328;43.992;2023-11-19T00:09:46;18.25;;;6.75;;
69246;SDS011;56358;56.328;43.992;2023-11-19T00:11:47;14.75;;;4.93;;
69246;SDS011;56358;56.328;43.992;2023-11-19T00:13:48;13.65;;;4.63;;
69246;SDS011;56358;56.328;43.992;2023-11-19T00:15:48;14.27;;;3.55;;
69246;SDS011;56358;56.328;43.992;2023-11-19T00:17:49;14.18;;;5.00;;
69246;SDS011;56358;56.328;43.992;2023-11-19T00:19:50;7.93;;;4.10;;
69246;SDS011;56358;56.328;43.992;2023-11-19T00:21:51;13.60;;;5.43;;
69246;SDS011;56358;56.328;43.992;2023-11-19T00:23:52;11.40;;;3.70;;
69246;SDS011;56358;56.328;43.992;2023-11-19T00:25:53;15.20;;;5.50;;
69246;SDS011;56358;56.328;43.992;2023-11-19T00:27:54;17.63;;;4.43;;
69246;SDS011;56358;56.328;43.992;2023-11-19T00:29:56;12.88;;;4.40;;
69246;SDS011;56358;56.328;43.992;2023-11-19T00:31:57;18.30;;;6.55;;
69246;SDS011;56358;56.328;43.992;2023-11-19T00:33:57;12.27;;;5.13;;
69246;SDS011;56358;56.328;43.992;2023-11-19T00:35:58;15.02;;;4.97;;
69246;SDS011;56358;56.328;43.992;2023-11-19T00:37:59;16.80;;;5.50;;
69246;SDS011;56358;56.328;43.992;2023-11-19T00:40:00;16.17;;;5.38;;
69246;SDS011;56358;56.328;43.992;2023-11-19T00:42:02;11.55;;;5.20;;
69246;SDS011;56358;56.328;43.992;2023-11-19T00:44:03;11.23;;;4.28;;
69246;SDS011;56358;56.328;43.992;2023-11-19T00:46:06;12.13;;;3.85;;
69246;SDS011;56358;56.328;43.992;2023-11-19T00:48:07;14.38;;;5.50;;
69246;SDS011;56358;56.328;43.992;2023-11-19T00:50:08;17.08;;;7.00;;
69246;SDS011;56358;56.328;43.992;2023-11-19T00:52:10;20.88;;;8.27;;
69246;SDS011;56358;56.328;43.992;2023-11-19T00:54:10;15.50;;;5.10;;
69246;SDS011;56358;56.328;43.992;2023-11-19T00:56:11;17.77;;;6.32;;
69246;SDS011;56358;56.328;43.992;2023-11-19T00:58:12;17.33;;;6.07;;
69246;SDS011;56358;56.328;43.992;2023-11-19T01:00:13;15.80;;;6.32;;
69246;SDS011;56358;56.328;43.992;2023-11-19T01:02:21;17.23;;;5.65;;
69246;SDS011;56358;56.328;43.992;2023-11-19T01:04:22;19.98;;;5.55;;
69246;SDS011;56358;56.328;43.992;2023-11-19T01:06:27;12.38;;;4.72;;
69246;SDS011;56358;56.328;43.992;2023-11-19T01:08:32;11.40;;;4.00;;
69246;SDS011;56358;56.328;43.992;2023-11-19T01:10:32;12.48;;;4.95;;
69246;SDS011;56358;56.328;43.992;2023-11-19T01:12:34;13.35;;;5.97;;
69246;SDS011;56358;56.328;43.992;2023-11-19T01:14:35;14.25;;;5.40;;
69246;SDS011;56358;56.328;43.992;2023-11-19T01:16:36;23.73;;;8.05;;
69246;SDS011;56358;56.328;43.992;2023-11-19T01:18:36;25.58;;;8.27;;
69246;SDS011;56358;56.328;43.992;2023-11-19T01:20:37;22.10;;;8.40;;
69246;SDS011;56358;56.328;43.992;2023-11-19T01:22:38;12.52;;;5.25;;
69246;SDS011;56358;56.328;43.992;2023-11-19T01:24:39;15.52;;;5.72;;
69246;SDS011;56358;56.328;43.992;2023-11-19T01:26:40;21.27;;;6.50;;
69246;SDS011;56358;56.328;43.992;2023-11-19T01:28:46;40.80;;;14.38;;
69246;SDS011;56358;56.328;43.992;2023-11-19T01:30:50;16.48;;;6.82;;
69246;SDS011;56358;56.328;43.992;2023-11-19T01:32:51;15.38;;;4.72;;
69246;SDS011;56358;56.328;43.992;2023-11-19T01:34:52;12.32;;;4.97;;
69246;SDS011;56358;56.328;43.992;2023-11-19T01:36:52;19.23;;;5.78;;
69246;SDS011;56358;56.328;43.992;2023-11-19T01:38:53;14.57;;;5.78;;
69246;SDS011;56358;56.328;43.992;2023-11-19T01:40:57;13.52;;;5.50;;
69246;SDS011;56358;56.328;43.992;2023-11-19T01:42:58;13.70;;;6.07;;
69246;SDS011;56358;56.328;43.992;2023-11-19T01:44:59;18.83;;;6.75;;
69246;SDS011;56358;56.328;43.992;2023-11-19T01:47:00;18.63;;;7.97;;
69246;SDS011;56358;56.328;43.992;2023-11-19T01:49:02;24.00;;;7.75;;
69246;SDS011;56358;56.328;43.992;2023-11-19T01:51:05;25.08;;;8.15;;
69246;SDS011;56358;56.328;43.992;2023-11-19T01:53:07;22.00;;;7.32;;
69246;SDS011;56358;56.328;43.992;2023-11-19T01:55:08;20.85;;;7.60;;
69246;SDS011;56358;56.328;43.992;2023-11-19T01:59:12;24.10;;;8.88;;
69246;SDS011;56358;56.328;43.992;2023-11-19T02:01:14;22.08;;;6.47;;
69246;SDS011;56358;56.328;43.992;2023-11-19T02:03:15;24.65;;;8.38;;
69246;SDS011;56358;56.328;43.992;2023-11-19T02:05:16;19.23;;;7.00;;
69246;SDS011;56358;56.328;43.992;2023-11-19T02:07:17;17.95;;;6.35;;
69246;SDS011;56358;56.328;43.992;2023-11-19T02:09:18;18.48;;;5.95;;
69246;SDS011;56358;56.328;43.992;2023-11-19T02:11:19;19.75;;;7.97;;
69246;SDS011;56358;56.328;43.992;2023-11-19T02:13:20;25.95;;;9.38;;
69246;SDS011;56358;56.328;43.992;2023-11-19T02:15:21;26.25;;;7.20;;
69246;SDS011;56358;56.328;43.992;2023-11-19T02:17:27;18.95;;;7.28;;
69246;SDS011;56358;56.328;43.992;2023-11-19T02:19:28;24.10;;;7.57;;
69246;SDS011;56358;56.328;43.992;2023-11-19T02:21:49;18.83;;;6.75;;
69246;SDS011;56358;56.328;43.992;2023-11-19T02:23:49;17.38;;;8.02;;
69246;SDS011;56358;56.328;43.992;2023-11-19T02:26:06;18.88;;;6.90;;
69246;SDS011;56358;56.328;43.992;2023-11-19T02:28:17;17.80;;;7.13;;
69246;SDS011;56358;56.328;43.992;2023-11-19T02:30:18;16.50;;;6.85;;
69246;SDS011;56358;56.328;43.992;2023-11-19T02:32:19;18.05;;;6.20;;
69246;SDS011;56358;56.328;43.992;2023-11-19T02:34:20;15.10;;;5.78;;
69246;SDS011;56358;56.328;43.992;2023-11-19T02:36:22;16.13;;;5.85;;
69246;SDS011;56358;56.328;43.992;2023-11-19T02:38:22;18.42;;;6.40;;
69246;SDS011;56358;56.328;43.992;2023-11-19T02:40:23;16.20;;;5.88;;
69246;SDS011;56358;56.328;43.992;2023-11-19T02:42:25;18.23;;;6.35;;
69246;SDS011;56358;56.328;43.992;2023-11-19T02:44:25;16.02;;;6.35;;
69246;SDS011;56358;56.328;43.992;2023-11-19T02:48:29;12.15;;;5.03;;
69246;SDS011;56358;56.328;43.992;2023-11-19T02:50:31;11.90;;;5.03;;
69246;SDS011;56358;56.328;43.992;2023-11-19T02:52:31;15.77;;;5.60;;
69246;SDS011;56358;56.328;43.992;2023-11-19T02:54:37;10.82;;;4.50;;
69246;SDS011;56358;56.328;43.992;2023-11-19T02:56:41;20.90;;;6.53;;
69246;SDS011;56358;56.328;43.992;2023-11-19T02:58:43;11.15;;;5.38;;
69246;SDS011;56358;56.328;43.992;2023-11-19T03:00:45;12.85;;;5.13;;
69246;SDS011;56358;56.328;43.992;2023-11-19T03:02:54;13.63;;;5.80;;
69246;SDS011;56358;56.328;43.992;2023-11-19T03:05:17;12.93;;;5.20;;
69246;SDS011;56358;56.328;43.992;2023-11-19T03:07:20;16.67;;;4.85;;
69246;SDS011;56358;56.328;43.992;2023-11-19T03:09:21;13.82;;;4.80;;
69246;SDS011;56358;56.328;43.992;2023-11-19T03:11:21;25.48;;;6.43;;
69246;SDS011;56358;56.328;43.992;2023-11-19T03:13:22;13.50;;;5.40;;
69246;SDS011;56358;56.328;43.992;2023-11-19T03:15:23;13.90;;;6.15;;
69246;SDS011;56358;56.328;43.992;2023-11-19T03:17:23;12.20;;;5.15;;
69246;SDS011;56358;56.328;43.992;2023-11-19T03:19:25;14.75;;;5.22;;
69246;SDS011;56358;56.328;43.992;2023-11-19T03:21:30;17.52;;;5.95;;
69246;SDS011;56358;56.328;43.992;2023-11-19T03:23:31;14.60;;;5.40;;
69246;SDS011;56358;56.328;43.992;2023-11-19T03:25:32;14.75;;;6.55;;
69246;SDS011;56358;56.328;43.992;2023-11-19T03:27:37;11.10;;;4.70;;
69246;SDS011;56358;56.328;43.992;2023-11-19T03:29:42;22.95;;;6.03;;
69246;SDS011;56358;56.328;43.992;2023-11-19T03:31:43;16.73;;;6.47;;
69246;SDS011;56358;56.328;43.992;2023-11-19T03:33:45;17.17;;;6.57;;
69246;SDS011;56358;56.328;43.992;2023-11-19T03:35:45;14.38;;;5.15;;
69246;SDS011;56358;56.328;43.992;2023-11-19T03:37:46;19.90;;;6.13;;
69246;SDS011;56358;56.328;43.992;2023-11-19T03:39:47;14.05;;;5.05;;
69246;SDS011;56358;56.328;43.992;2023-11-19T03:41:47;20.98;;;5.38;;
69246;SDS011;56358;56.328;43.992;2023-11-19T03:43:48;12.68;;;4.72;;
69246;SDS011;56358;56.328;43.992;2023-11-19T03:45:49;12.10;;;4.55;;
69246;SDS011;56358;56.328;43.992;2023-11-19T03:47:50;20.02;;;6.18;;
69246;SDS011;56358;56.328;43.992;2023-11-19T03:49:51;16.67;;;5.88;;
69246;SDS011;56358;56.328;43.992;2023-11-19T03:51:52;11.57;;;4.45;;
69246;SDS011;56358;56.328;43.992;2023-11-19T03:53:53;11.85;;;5.05;;
69246;SDS011;56358;56.328;43.992;2023-11-19T03:55:54;11.57;;;4.65;;
69246;SDS011;56358;56.328;43.992;2023-11-19T03:57:54;9.32;;;4.72;;
69246;SDS011;56358;56.328;43.992;2023-11-19T03:59:55;13.70;;;5.20;;
69246;SDS011;56358;56.328;43.992;2023-11-19T04:01:56;16.20;;;5.47;;
69246;SDS011;56358;56.328;43.992;2023-11-19T04:04:00;11.15;;;4.55;;
69246;SDS011;56358;56.328;43.992;2023-11-19T04:06:01;16.33;;;4.78;;
69246;SDS011;56358;56.328;43.992;2023-11-19T04:08:02;11.52;;;4.78;;
69246;SDS011;56358;56.328;43.992;2023-11-19T04:10:03;10.32;;;3.28;;
69246;SDS011;56358;56.328;43.992;2023-11-19T04:12:05;12.00;;;4.43;;
69246;SDS011;56358;56.328;43.992;2023-11-19T04:14:07;14.32;;;5.72;;
69246;SDS011;56358;56.328;43.992;2023-11-19T04:16:07;11.85;;;4.93;;
69246;SDS011;56358;56.328;43.992;2023-11-19T04:18:08;9.57;;;4.70;;
69246;SDS011;56358;56.328;43.992;2023-11-19T04:20:09;15.63;;;5.68;;
69246;SDS011;56358;56.328;43.992;2023-11-19T04:22:13;13.73;;;4.78;;
69246;SDS011;56358;56.328;43.992;2023-11-19T04:24:14;14.95;;;5.40;;
69246;SDS011;56358;56.328;43.992;2023-11-19T04:26:15;13.32;;;5.97;;
69246;SDS011;56358;56.328;43.992;2023-11-19T04:28:16;11.55;;;5.70;;
69246;SDS011;56358;56.328;43.992;2023-11-19T04:30:18;14.02;;;6.28;;
69246;SDS011;56358;56.328;43.992;2023-11-19T04:32:19;13.20;;;6.28;;
69246;SDS011;56358;56.328;43.992;2023-11-19T04:34:19;17.42;;;6.05;;
69246;SDS011;56358;56.328;43.992;2023-11-19T04:36:20;14.45;;;6.13;;
69246;SDS011;56358;56.328;43.992;2023-11-19T04:38:24;14.95;;;6.55;;
69246;SDS011;56358;56.328;43.992;2023-11-19T04:40:26;20.33;;;5.93;;
69246;SDS011;56358;56.328;43.992;2023-11-19T04:42:27;20.00;;;6.78;;
69246;SDS011;56358;56.328;43.992;2023-11-19T04:44:28;19.33;;;5.72;;
69246;SDS011;56358;56.328;43.992;2023-11-19T04:46:29;17.98;;;6.05;;
69246;SDS011;56358;56.328;43.992;2023-11-19T04:48:30;20.73;;;5.75;;
69246;SDS011;56358;56.328;43.992;2023-11-19T04:50:31;12.00;;;5.13;;
69246;SDS011;56358;56.328;43.992;2023-11-19T04:52:32;13.73;;;5.25;;
69246;SDS011;56358;56.328;43.992;2023-11-19T04:54:32;11.95;;;4.57;;
69246;SDS011;56358;56.328;43.992;2023-11-19T04:56:33;8.48;;;3.95;;
69246;SDS011;56358;56.328;43.992;2023-11-19T04:58:34;13.77;;;4.90;;
69246;SDS011;56358;56.328;43.992;2023-11-19T05:00:36;15.50;;;5.00;;
69246;SDS011;56358;56.328;43.992;2023-11-19T05:02:37;15.30;;;5.53;;
69246;SDS011;56358;56.328;43.992;2023-11-19T05:04:37;10.85;;;4.97;;
69246;SDS011;56358;56.328;43.992;2023-11-19T05:06:42;10.05;;;4.60;;
69246;SDS011;56358;56.328;43.992;2023-11-19T05:08:43;14.95;;;5.50;;
69246;SDS011;56358;56.328;43.992;2023-11-19T05:10:44;12.82;;;5.20;;
69246;SDS011;56358;56.328;43.992;2023-11-19T05:12:45;13.07;;;4.38;;
69246;SDS011;56358;56.328;43.992;2023-11-19T05:14:46;11.93;;;5.85;;
69246;SDS011;56358;56.328;43.992;2023-11-19T05:16:50;11.15;;;4.72;;
69246;SDS011;56358;56.328;43.992;2023-11-19T05:18:50;13.10;;;4.50;;
69246;SDS011;56358;56.328;43.992;2023-11-19T05:20:51;13.18;;;4.85;;
69246;SDS011;56358;56.328;43.992;2023-11-19T05:22:52;20.20;;;5.47;;
69246;SDS011;56358;56.328;43.992;2023-11-19T05:24:53;15.40;;;5.88;;
69246;SDS011;56358;56.328;43.992;2023-11-19T05:26:54;14.02;;;5.85;;
69246;SDS011;56358;56.328;43.992;2023-11-19T05:28:56;13.07;;;4.80;;
69246;SDS011;56358;56.328;43.992;2023-11-19T05:30:57;15.05;;;5.43;;
69246;SDS011;56358;56.328;43.992;2023-11-19T05:32:58;12.40;;;4.70;;
69246;SDS011;56358;56.328;43.992;2023-11-19T05:34:59;18.52;;;5.35;;
69246;SDS011;56358;56.328;43.992;2023-11-19T05:36:59;20.27;;;5.72;;
69246;SDS011;56358;56.328;43.992;2023-11-19T05:39:00;12.65;;;6.18;;
69246;SDS011;56358;56.328;43.992;2023-11-19T05:41:01;10.85;;;4.90;;
69246;SDS011;56358;56.328;43.992;2023-11-19T05:43:01;18.55;;;7.05;;
69246;SDS011;56358;56.328;43.992;2023-11-19T05:45:02;13.77;;;5.82;;
69246;SDS011;56358;56.328;43.992;2023-11-19T05:47:05;13.48;;;4.75;;
69246;SDS011;56358;56.328;43.992;2023-11-19T05:49:07;11.13;;;5.28;;
69246;SDS011;56358;56.328;43.992;2023-11-19T05:51:08;9.45;;;4.55;;
69246;SDS011;56358;56.328;43.992;2023-11-19T05:53:08;20.20;;;5.07;;
69246;SDS011;56358;56.328;43.992;2023-11-19T05:55:10;8.55;;;4.78;;
69246;SDS011;56358;56.328;43.992;2023-11-19T05:57:11;12.00;;;4.38;;
69246;SDS011;56358;56.328;43.992;2023-11-19T05:59:14;11.13;;;4.80;;
69246;SDS011;56358;56.328;43.992;2023-11-19T06:01:15;12.88;;;5.07;;
69246;SDS011;56358;56.328;43.992;2023-11-19T06:03:16;16.48;;;5.28;;
69246;SDS011;56358;56.328;43.992;2023-11-19T06:05:17;10.65;;;4.95;;
69246;SDS011;56358;56.328;43.992;2023-11-19T06:07:18;15.27;;;4.95;;
69246;SDS011;56358;56.328;43.992;2023-11-19T06:09:20;15.40;;;5.18;;
69246;SDS011;56358;56.328;43.992;2023-11-19T06:13:23;10.23;;;4.18;;
69246;SDS011;56358;56.328;43.992;2023-11-19T06:15:26;9.65;;;3.97;;
69246;SDS011;56358;56.328;43.992;2023-11-19T06:17:29;18.58;;;4.20;;
69246;SDS011;56358;56.328;43.992;2023-11-19T06:19:30;12.68;;;4.43;;
69246;SDS011;56358;56.328;43.992;2023-11-19T06:21:31;11.60;;;5.03;;
69246;SDS011;56358;56.328;43.992;2023-11-19T06:23:32;11.43;;;4.32;;
69246;SDS011;56358;56.328;43.992;2023-11-19T06:25:33;14.82;;;6.20;;
69246;SDS011;56358;56.328;43.992;2023-11-19T06:27:35;9.90;;;3.83;;
69246;SDS011;56358;56.328;43.992;2023-11-19T06:29:36;16.67;;;5.22;;
69246;SDS011;56358;56.328;43.992;2023-11-19T06:31:36;11.52;;;5.20;;
69246;SDS011;56358;56.328;43.992;2023-11-19T06:33:41;13.95;;;4.68;;
69246;SDS011;56358;56.328;43.992;2023-11-19T06:35:42;10.23;;;4.35;;
69246;SDS011;56358;56.328;43.992;2023-11-19T06:37:43;16.08;;;4.68;;
69246;SDS011;56358;56.328;43.992;2023-11-19T06:39:44;5.60;;;3.10;;
69246;SDS011;56358;56.328;43.992;2023-11-19T06:41:45;10.23;;;4.88;;
69246;SDS011;56358;56.328;43.992;2023-11-19T06:43:46;11.30;;;4.47;;
69246;SDS011;56358;56.328;43.992;2023-11-19T06:45:47;13.00;;;4.65;;
69246;SDS011;56358;56.328;43.992;2023-11-19T06:47:48;11.32;;;4.75;;
69246;SDS011;56358;56.328;43.992;2023-11-19T06:49:48;12.30;;;3.80;;
69246;SDS011;56358;56.328;43.992;2023-11-19T06:51:49;18.02;;;4.80;;
69246;SDS011;56358;56.328;43.992;2023-11-19T06:53:50;8.68;;;4.30;;
69246;SDS011;56358;56.328;43.992;2023-11-19T06:55:51;12.75;;;4.20;;
69246;SDS011;56358;56.328;43.992;2023-11-19T06:57:51;12.32;;;4.38;;
69246;SDS011;56358;56.328;43.992;2023-11-19T06:59:52;13.20;;;3.88;;
69246;SDS011;56358;56.328;43.992;2023-11-19T07:01:53;10.65;;;4.10;;
69246;SDS011;56358;56.328;43.992;2023-11-19T07:03:54;10.10;;;4.32;;
69246;SDS011;56358;56.328;43.992;2023-11-19T07:05:54;14.77;;;3.75;;
69246;SDS011;56358;56.328;43.992;2023-11-19T07:07:56;7.60;;;3.92;;
69246;SDS011;56358;56.328;43.992;2023-11-19T07:09:56;7.15;;;3.33;;
69246;SDS011;56358;56.328;43.992;2023-11-19T07:11:57;10.95;;;3.03;;
69246;SDS011;56358;56.328;43.992;2023-11-19T07:14:00;11.93;;;3.15;;
69246;SDS011;56358;56.328;43.992;2023-11-19T07:16:01;11.05;;;3.92;;
69246;SDS011;56358;56.328;43.992;2023-11-19T07:18:01;7.30;;;3.65;;
69246;SDS011;56358;56.328;43.992;2023-11-19T07:20:02;8.38;;;3.50;;
69246;SDS011;56358;56.328;43.992;2023-11-19T07:22:05;10.38;;;3.53;;
69246;SDS011;56358;56.328;43.992;2023-11-19T07:24:07;15.00;;;4.35;;
69246;SDS011;56358;56.328;43.992;2023-11-19T07:26:07;9.98;;;4.15;;
69246;SDS011;56358;56.328;43.992;2023-11-19T07:28:08;12.82;;;2.83;;
69246;SDS011;56358;56.328;43.992;2023-11-19T07:30:10;9.38;;;3.60;;
69246;SDS011;56358;56.328;43.992;2023-11-19T07:32:11;12.23;;;3.72;;
69246;SDS011;56358;56.328;43.992;2023-11-19T07:36:14;4.47;;;2.13;;
69246;SDS011;56358;56.328;43.992;2023-11-19T07:38:14;5.78;;;3.17;;
69246;SDS011;56358;56.328;43.992;2023-11-19T07:40:15;13.88;;;4.15;;
69246;SDS011;56358;56.328;43.992;2023-11-19T07:42:16;8.40;;;4.32;;
69246;SDS011;56358;56.328;43.992;2023-11-19T07:44:16;12.73;;;4.90;;
69246;SDS011;56358;56.328;43.992;2023-11-19T07:46:17;14.13;;;4.70;;
69246;SDS011;56358;56.328;43.992;2023-11-19T07:48:21;13.43;;;5.28;;
69246;SDS011;56358;56.328;43.992;2023-11-19T07:50:23;11.13;;;5.75;;
69246;SDS011;56358;56.328;43.992;2023-11-19T07:52:25;13.27;;;5.68;;
69246;SDS011;56358;56.328;43.992;2023-11-19T07:54:25;20.45;;;5.88;;
69246;SDS011;56358;56.328;43.992;2023-11-19T07:56:26;11.18;;;4.72;;
69246;SDS011;56358;56.328;43.992;2023-11-19T07:58:27;14.60;;;5.75;;
69246;SDS011;56358;56.328;43.992;2023-11-19T08:00:28;14.55;;;4.85;;
69246;SDS011;56358;56.328;43.992;2023-11-19T08:02:29;14.40;;;5.50;;
69246;SDS011;56358;56.328;43.992;2023-11-19T08:04:29;11.02;;;4.95;;
69246;SDS011;56358;56.328;43.992;2023-11-19T08:06:30;10.82;;;5.22;;
69246;SDS011;56358;56.328;43.992;2023-11-19T08:08:31;16.33;;;6.15;;
69246;SDS011;56358;56.328;43.992;2023-11-19T08:10:33;16.35;;;6.22;;
69246;SDS011;56358;56.328;43.992;2023-11-19T08:12:34;15.55;;;6.40;;
69246;SDS011;56358;56.328;43.992;2023-11-19T08:14:35;17.95;;;6.60;;
69246;SDS011;56358;56.328;43.992;2023-11-19T08:16:38;18.55;;;7.35;;
69246;SDS011;56358;56.328;43.992;2023-11-19T08:18:41;19.90;;;5.18;;
69246;SDS011;56358;56.328;43.992;2023-11-19T08:20:43;11.70;;;5.35;;
69246;SDS011;56358;56.328;43.992;2023-11-19T08:22:45;17.88;;;5.55;;
69246;SDS011;56358;56.328;43.992;2023-11-19T08:24:45;14.57;;;5.32;;
69246;SDS011;56358;56.328;43.992;2023-11-19T08:26:46;13.73;;;6.13;;
69246;SDS011;56358;56.328;43.992;2023-11-19T08:28:47;17.23;;;5.50;;
69246;SDS011;56358;56.328;43.992;2023-11-19T08:30:47;7.68;;;4.38;;
69246;SDS011;56358;56.328;43.992;2023-11-19T08:32:48;16.30;;;5.45;;
69246;SDS011;56358;56.328;43.992;2023-11-19T08:34:49;17.65;;;5.10;;
69246;SDS011;56358;56.328;43.992;2023-11-19T08:36:50;16.88;;;6.18;;
69246;SDS011;56358;56.328;43.992;2023-11-19T08:38:53;13.98;;;5.55;;
69246;SDS011;56358;56.328;43.992;2023-11-19T08:40:54;22.15;;;6.00;;
69246;SDS011;56358;56.328;43.992;2023-11-19T08:42:59;13.65;;;5.32;;
69246;SDS011;56358;56.328;43.992;2023-11-19T08:45:00;13.13;;;5.15;;
69246;SDS011;56358;56.328;43.992;2023-11-19T08:47:02;14.95;;;4.88;;
69246;SDS011;56358;56.328;43.992;2023-11-19T08:49:03;16.02;;;5.35;;
69246;SDS011;56358;56.328;43.992;2023-11-19T08:51:04;13.63;;;4.80;;
69246;SDS011;56358;56.328;43.992;2023-11-19T08:53:05;12.57;;;5.70;;
69246;SDS011;56358;56.328;43.992;2023-11-19T08:55:07;17.00;;;5.07;;
69246;SDS011;56358;56.328;43.992;2023-11-19T08:57:10;10.43;;;5.22;;
69246;SDS011;56358;56.328;43.992;2023-11-19T08:59:11;14.10;;;5.25;;
69246;SDS011;56358;56.328;43.992;2023-11-19T09:01:11;10.82;;;5.22;;
69246;SDS011;56358;56.328;43.992;2023-11-19T09:03:12;17.05;;;5.78;;
69246;SDS011;56358;56.328;43.992;2023-11-19T09:05:13;11.88;;;5.47;;
69246;SDS011;56358;56.328;43.992;2023-11-19T09:07:13;15.65;;;5.50;;
69246;SDS011;56358;56.328;43.992;2023-11-19T09:09:14;13.77;;;5.30;;
69246;SDS011;56358;56.328;43.992;2023-11-19T09:11:15;19.60;;;5.93;;
69246;SDS011;56358;56.328;43.992;2023-11-19T09:13:17;15.25;;;6.30;;
69246;SDS011;56358;56.328;43.992;2023-11-19T09:15:17;11.65;;;5.10;;
69246;SDS011;56358;56.328;43.992;2023-11-19T09:17:18;20.80;;;7.30;;
69246;SDS011;56358;56.328;43.992;2023-11-19T09:19:19;11.73;;;4.93;;
69246;SDS011;56358;56.328;43.992;2023-11-19T09:21:19;10.50;;;4.90;;
69246;SDS011;56358;56.328;43.992;2023-11-19T09:23:20;16.40;;;5.63;;
69246;SDS011;56358;56.328;43.992;2023-11-19T09:25:21;13.50;;;6.28;;
69246;SDS011;56358;56.328;43.992;2023-11-19T09:27:21;12.63;;;6.60;;
69246;SDS011;56358;56.328;43.992;2023-11-19T09:29:22;11.98;;;5.75;;
69246;SDS011;56358;56.328;43.992;2023-11-19T09:31:24;16.83;;;7.55;;
69246;SDS011;56358;56.328;43.992;2023-11-19T09:33:24;14.63;;;6.07;;
69246;SDS011;56358;56.328;43.992;2023-11-19T09:35:26;15.27;;;6.57;;
69246;SDS011;56358;56.328;43.992;2023-11-19T09:37:27;20.80;;;6.88;;
69246;SDS011;56358;56.328;43.992;2023-11-19T09:39:27;16.00;;;6.63;;
69246;SDS011;56358;56.328;43.992;2023-11-19T09:41:29;11.52;;;5.82;;
69246;SDS011;56358;56.328;43.992;2023-11-19T09:43:31;17.95;;;6.68;;
69246;SDS011;56358;56.328;43.992;2023-11-19T09:45:32;16.23;;;6.22;;
69246;SDS011;56358;56.328;43.992;2023-11-19T09:47:48;14.95;;;6.55;;
69246;SDS011;56358;56.328;43.992;2023-11-19T09:49:52;17.48;;;5.85;;
69246;SDS011;56358;56.328;43.992;2023-11-19T09:51:54;15.73;;;7.00;;
69246;SDS011;56358;56.328;43.992;2023-11-19T09:53:55;14.77;;;6.72;;
69246;SDS011;56358;56.328;43.992;2023-11-19T09:55:56;11.55;;;5.50;;
69246;SDS011;56358;56.328;43.992;2023-11-19T09:57:57;18.05;;;7.18;;
69246;SDS011;56358;56.328;43.992;2023-11-19T10:00:01;18.45;;;7.22;;
69246;SDS011;56358;56.328;43.992;2023-11-19T10:02:05;18.27;;;7.28;;
69246;SDS011;56358;56.328;43.992;2023-11-19T10:04:07;17.02;;;7.65;;
69246;SDS011;56358;56.328;43.992;2023-11-19T10:06:10;19.55;;;7.68;;
69246;SDS011;56358;56.328;43.992;2023-11-19T10:08:12;23.77;;;7.43;;
69246;SDS011;56358;56.328;43.992;2023-11-19T10:10:14;19.27;;;7.25;;
69246;SDS011;56358;56.328;43.992;2023-11-19T10:12:19;20.80;;;8.07;;
69246;SDS011;56358;56.328;43.992;2023-11-19T10:14:22;19.60;;;7.47;;
69246;SDS011;56358;56.328;43.992;2023-11-19T10:16:27;22.75;;;7.50;;
69246;SDS011;56358;56.328;43.992;2023-11-19T10:18:30;17.10;;;8.05;;
69246;SDS011;56358;56.328;43.992;2023-11-19T10:20:37;16.10;;;6.72;;
69246;SDS011;56358;56.328;43.992;2023-11-19T10:22:40;19.88;;;7.35;;
69246;SDS011;56358;56.328;43.992;2023-11-19T10:24:41;16.98;;;8.15;;
69246;SDS011;56358;56.328;43.992;2023-11-19T10:26:42;19.23;;;6.65;;
69246;SDS011;56358;56.328;43.992;2023-11-19T10:28:43;22.92;;;6.55;;
69246;SDS011;56358;56.328;43.992;2023-11-19T10:30:46;15.38;;;6.03;;
69246;SDS011;56358;56.328;43.992;2023-11-19T10:35:09;16.95;;;8.25;;
69246;SDS011;56358;56.328;43.992;2023-11-19T10:39:51;15.25;;;6.65;;
69246;SDS011;56358;56.328;43.992;2023-11-19T10:41:54;17.15;;;7.20;;
69246;SDS011;56358;56.328;43.992;2023-11-19T10:43:55;20.23;;;7.85;;
69246;SDS011;56358;56.328;43.992;2023-11-19T10:46:08;20.88;;;7.38;;
69246;SDS011;56358;56.328;43.992;2023-11-19T10:48:13;15.77;;;6.18;;
69246;SDS011;56358;56.328;43.992;2023-11-19T10:50:13;17.77;;;6.75;;
69246;SDS011;56358;56.328;43.992;2023-11-19T10:52:17;14.77;;;6.97;;
69246;SDS011;56358;56.328;43.992;2023-11-19T10:54:21;15.27;;;6.50;;
69246;SDS011;56358;56.328;43.992;2023-11-19T10:56:23;15.02;;;5.93;;
69246;SDS011;56358;56.328;43.992;2023-11-19T10:58:31;15.38;;;6.53;;
69246;SDS011;56358;56.328;43.992;2023-11-19T11:00:44;19.25;;;6.65;;
69246;SDS011;56358;56.328;43.992;2023-11-19T11:02:49;15.40;;;6.38;;
69246;SDS011;56358;56.328;43.992;2023-11-19T11:04:55;18.45;;;6.65;;
69246;SDS011;56358;56.328;43.992;2023-11-19T11:06:56;17.80;;;6.43;;
69246;SDS011;56358;56.328;43.992;2023-11-19T11:08:59;19.67;;;6.07;;
69246;SDS011;56358;56.328;43.992;2023-11-19T11:11:00;13.60;;;6.18;;
69246;SDS011;56358;56.328;43.992;2023-11-19T11:13:04;18.33;;;6.15;;
69246;SDS011;56358;56.328;43.992;2023-11-19T11:15:06;16.98;;;6.60;;
69246;SDS011;56358;56.328;43.992;2023-11-19T11:17:08;15.68;;;6.68;;
69246;SDS011;56358;56.328;43.992;2023-11-19T11:19:11;16.67;;;5.63;;
69246;SDS011;56358;56.328;43.992;2023-11-19T11:21:14;14.77;;;5.57;;
69246;SDS011;56358;56.328;43.992;2023-11-19T11:32:45;8.98;;;4.68;;
69246;SDS011;56358;56.328;43.992;2023-11-19T11:34:58;15.43;;;5.38;;
69246;SDS011;56358;56.328;43.992;2023-11-19T11:39:26;16.13;;;6.25;;
69246;SDS011;56358;56.328;43.992;2023-11-19T11:41:30;18.05;;;6.60;;
69246;SDS011;56358;56.328;43.992;2023-11-19T11:43:44;17.17;;;6.55;;
69246;SDS011;56358;56.328;43.992;2023-11-19T11:45:49;15.45;;;6.07;;
69246;SDS011;56358;56.328;43.992;2023-11-19T11:49:58;12.02;;;4.80;;
69246;SDS011;56358;56.328;43.992;2023-11-19T11:52:08;13.32;;;4.18;;
69246;SDS011;56358;56.328;43.992;2023-11-19T11:56:20;12.18;;;5.07;;
69246;SDS011;56358;56.328;43.992;2023-11-19T11:58:25;20.92;;;4.82;;
69246;SDS011;56358;56.328;43.992;2023-11-19T12:00:40;14.77;;;4.30;;
69246;SDS011;56358;56.328;43.992;2023-11-19T12:02:41;11.13;;;4.35;;
69246;SDS011;56358;56.328;43.992;2023-11-19T12:09:15;6.53;;;3.22;;
69246;SDS011;56358;56.328;43.992;2023-11-19T12:11:16;8.68;;;3.42;;
69246;SDS011;56358;56.328;43.992;2023-11-19T12:13:17;11.43;;;4.03;;
69246;SDS011;56358;56.328;43.992;2023-11-19T12:15:19;5.78;;;2.80;;
69246;SDS011;56358;56.328;43.992;2023-11-19T12:19:36;8.98;;;4.68;;
69246;SDS011;56358;56.328;43.992;2023-11-19T12:21:42;12.77;;;4.30;;
69246;SDS011;56358;56.328;43.992;2023-11-19T12:23:45;12.35;;;3.90;;
69246;SDS011;56358;56.328;43.992;2023-11-19T12:25:48;10.45;;;3.95;;
69246;SDS011;56358;56.328;43.992;2023-11-19T12:27:49;7.63;;;3.75;;
69246;SDS011;56358;56.328;43.992;2023-11-19T12:29:51;15.02;;;5.13;;
69246;SDS011;56358;56.328;43.992;2023-11-19T12:31:55;14.95;;;4.93;;